createdAt,value
2023-03-10T00:01:53.853Z,99177.88
2023-03-10T00:04:24.478Z,99174.44
2023-03-10T00:06:58.538Z,99168.41
2023-03-10T00:09:33.298Z,99169.25
2023-03-10T00:12:03.071Z,99168.41
2023-03-10T00:14:33.943Z,99158.09
2023-03-10T00:17:02.470Z,99159.78
2023-03-10T00:19:30.927Z,99143.44
2023-03-10T00:22:07.176Z,99138.31
2023-03-10T00:24:41.494Z,99127.97
2023-03-10T00:27:16.874Z,99124.50
2023-03-10T00:29:52.673Z,99117.63
2023-03-10T00:32:26.631Z,99112.47
2023-03-10T00:34:55.268Z,99115.03
2023-03-10T00:37:28.481Z,99110.75
2023-03-10T00:39:58.366Z,99102.97
2023-03-10T00:42:28.796Z,99094.38
2023-03-10T00:44:59.226Z,99088.31
2023-03-10T00:47:30.449Z,99086.63
2023-03-10T00:50:13.919Z,99074.56
2023-03-10T00:52:42.606Z,99071.97
2023-03-10T00:55:11.228Z,99065.94
2023-03-10T00:57:44.317Z,99062.47
2023-03-10T01:00:16.875Z,99064.22
2023-03-10T01:02:48.282Z,99055.59
2023-03-10T01:05:16.779Z,99052.16
2023-03-10T01:07:51.387Z,99038.38
2023-03-10T01:10:19.902Z,99037.50
2023-03-10T01:12:51.289Z,99045.25
2023-03-10T01:15:24.306Z,99047.84
2023-03-10T01:17:57.704Z,99035.78
2023-03-10T01:20:29.342Z,99031.47
2023-03-10T01:23:02.056Z,99033.22
2023-03-10T01:25:31.017Z,99031.47
2023-03-10T01:28:02.111Z,99022.00
2023-03-10T01:30:36.187Z,99022.00
2023-03-10T01:33:08.244Z,99028.03
2023-03-10T01:35:37.161Z,99020.28
2023-03-10T01:38:09.561Z,99032.34
2023-03-10T01:40:40.106Z,99030.66
2023-03-10T01:43:36.668Z,99022.88
2023-03-10T01:46:48.321Z,99010.81
2023-03-10T01:49:31.219Z,99000.47
2023-03-10T01:52:10.451Z,99004.78
2023-03-10T01:54:49.659Z,99004.81
2023-03-10T01:57:23.575Z,99005.66
2023-03-10T01:59:54.918Z,99002.19
2023-03-10T02:02:27.974Z,98997.91
2023-03-10T02:05:00.924Z,98994.44
2023-03-10T02:07:31.623Z,98997.06
2023-03-10T02:10:01.026Z,98991.03
2023-03-10T02:12:32.511Z,98993.59
2023-03-10T02:15:05.520Z,98992.75
2023-03-10T02:17:35.657Z,98991.03
2023-03-10T02:20:17.515Z,98986.69
2023-03-10T02:22:48.441Z,98993.59
2023-03-10T02:25:31.389Z,98986.69
2023-03-10T02:28:06.218Z,98991.84
2023-03-10T02:30:40.374Z,98984.97
2023-03-10T02:33:14.454Z,98989.28
2023-03-10T02:35:43.152Z,98984.97
2023-03-10T02:38:18.511Z,98985.84
2023-03-10T02:40:49.290Z,98979.81
2023-03-10T02:43:24.892Z,98984.97
2023-03-10T02:46:03.306Z,98977.22
2023-03-10T02:48:38.878Z,98981.53
2023-03-10T02:51:15.734Z,98982.41
2023-03-10T02:53:48.450Z,98976.34
2023-03-10T02:56:17.051Z,98979.81
2023-03-10T02:58:46.872Z,98977.22
2023-03-10T03:01:15.845Z,98964.28
2023-03-10T03:03:58.074Z,98971.19
2023-03-10T03:06:28.025Z,98963.44
2023-03-10T03:08:58.383Z,98969.47
2023-03-10T03:11:27.940Z,98959.97
2023-03-10T03:14:06.726Z,98960.84
2023-03-10T03:16:39.293Z,98966.00
2023-03-10T03:19:08.297Z,98962.56
2023-03-10T03:21:36.722Z,98960.00
2023-03-10T03:24:10.886Z,98960.00
2023-03-10T03:26:44.319Z,98963.44
2023-03-10T03:29:14.337Z,98955.66
2023-03-10T03:31:48.857Z,98966.91
2023-03-10T03:34:17.933Z,98965.16
2023-03-10T03:36:46.351Z,98960.00
2023-03-10T03:39:17.832Z,98963.44
2023-03-10T03:41:46.571Z,98960.84
2023-03-10T03:44:25.806Z,98958.25
2023-03-10T03:46:54.420Z,98952.25
2023-03-10T03:49:26.245Z,98956.56
2023-03-10T03:51:54.952Z,98953.09
2023-03-10T03:54:23.520Z,98941.88
2023-03-10T03:56:54.025Z,98938.44
2023-03-10T03:59:28.578Z,98942.78
2023-03-10T04:01:59.965Z,98945.38
2023-03-10T04:04:28.662Z,98949.66
2023-03-10T04:07:03.375Z,98948.78
2023-03-10T04:09:42.092Z,98949.66
2023-03-10T04:12:16.272Z,98949.66
2023-03-10T04:14:48.538Z,98952.25
2023-03-10T04:17:19.306Z,98941.06
2023-03-10T04:20:04.533Z,98952.25
2023-03-10T04:22:37.026Z,98945.38
2023-03-10T04:25:07.242Z,98951.41
2023-03-10T04:27:41.154Z,98958.28
2023-03-10T04:30:16.290Z,98953.09
2023-03-10T04:32:46.661Z,98957.41
2023-03-10T04:35:20.408Z,98960.88
2023-03-10T04:37:48.899Z,98959.16
2023-03-10T04:43:07.618Z,98961.75
2023-03-10T04:45:42.350Z,98947.94
2023-03-10T04:48:10.764Z,98963.47
2023-03-10T04:50:44.289Z,98953.13
2023-03-10T04:53:20.452Z,98959.16
2023-03-10T04:55:53.030Z,98952.25
2023-03-10T04:58:23.158Z,98953.97
2023-03-10T05:01:03.585Z,98960.00
2023-03-10T05:03:54.806Z,98953.97
2023-03-10T05:06:29.349Z,98960.84
2023-03-10T05:09:08.032Z,98956.56
2023-03-10T05:11:36.603Z,98963.44
2023-03-10T05:14:09.484Z,98947.03
2023-03-10T05:16:49.585Z,98964.31
2023-03-10T05:19:21.556Z,98963.44
2023-03-10T05:21:58.073Z,98957.38
2023-03-10T05:24:28.896Z,98955.66
2023-03-10T05:27:04.581Z,98953.09
2023-03-10T05:29:33.056Z,98950.50
2023-03-10T05:32:06.721Z,98953.94
2023-03-10T05:34:35.379Z,98936.72
2023-03-10T05:37:08.577Z,98943.59
2023-03-10T05:39:37.094Z,98941.84
2023-03-10T05:42:06.064Z,98945.28
2023-03-10T05:44:37.070Z,98952.19
2023-03-10T05:47:09.551Z,98935.78
2023-03-10T05:49:39.647Z,98934.97
2023-03-10T05:52:10.488Z,98952.19
2023-03-10T05:54:39.197Z,98954.75
2023-03-10T05:57:07.755Z,98948.72
2023-03-10T05:59:36.408Z,98951.31
2023-03-10T06:02:06.342Z,98951.31
2023-03-10T06:04:34.782Z,98963.38
2023-03-10T06:07:06.489Z,98954.75
2023-03-10T06:09:38.187Z,98960.81
2023-03-10T06:12:07.668Z,98953.00
2023-03-10T06:14:36.506Z,98940.06
2023-03-10T06:17:09.790Z,98946.13
2023-03-10T06:19:38.440Z,98957.31
2023-03-10T06:22:07.133Z,98938.38
2023-03-10T06:24:35.701Z,98938.38
2023-03-10T06:27:04.355Z,98941.81
2023-03-10T06:29:33.193Z,98941.81
2023-03-10T06:32:05.412Z,98957.31
2023-03-10T06:34:35.566Z,98961.63
2023-03-10T06:37:03.963Z,98957.31
2023-03-10T06:39:32.455Z,98956.47
2023-03-10T06:42:02.566Z,98948.72
2023-03-10T06:44:31.180Z,98951.28
2023-03-10T06:46:59.627Z,98942.69
2023-03-10T06:49:31.541Z,98949.59
2023-03-10T06:52:01.884Z,98951.31
2023-03-10T06:54:30.348Z,98946.13
2023-03-10T06:56:58.920Z,98943.56
2023-03-10T06:59:32.233Z,98934.97
2023-03-10T07:02:04.246Z,98947.00
2023-03-10T07:04:32.719Z,98961.66
2023-03-10T07:07:02.626Z,98967.69
2023-03-10T07:09:41.512Z,98970.28
2023-03-10T07:12:10.510Z,98969.41
2023-03-10T07:14:38.962Z,98990.13
2023-03-10T07:17:07.502Z,98984.97
2023-03-10T07:19:36.183Z,98982.38
2023-03-10T07:22:06.148Z,98985.81
2023-03-10T07:24:34.778Z,98988.44
2023-03-10T07:27:04.243Z,98987.63
2023-03-10T07:29:32.817Z,98993.66
2023-03-10T07:32:01.453Z,99005.75
2023-03-10T07:34:29.818Z,99011.78
2023-03-10T07:36:58.270Z,99003.19
2023-03-10T07:39:28.086Z,99001.44
2023-03-10T07:41:56.929Z,98994.59
2023-03-10T07:44:25.763Z,98998.91
2023-03-10T07:46:54.380Z,99001.50
2023-03-10T07:49:22.923Z,98988.56
2023-03-10T07:51:51.398Z,98995.50
2023-03-10T07:54:19.831Z,98992.91
2023-03-10T07:56:51.157Z,98990.31
2023-03-10T07:59:19.594Z,98986.00
2023-03-10T08:01:48.104Z,98990.34
2023-03-10T08:04:17.253Z,99004.13
2023-03-10T08:06:47.442Z,99011.91
2023-03-10T08:09:15.854Z,99014.50
2023-03-10T08:11:44.586Z,99017.06
2023-03-10T08:14:15.575Z,99017.91
2023-03-10T08:16:43.977Z,99030.84
2023-03-10T08:19:12.361Z,99032.56
2023-03-10T08:21:41.072Z,99035.13
2023-03-10T08:24:09.606Z,99046.34
2023-03-10T08:26:38.891Z,99029.94
2023-03-10T08:29:07.430Z,99041.19
2023-03-10T08:31:37.594Z,99024.78
2023-03-10T08:34:06.263Z,99035.16
2023-03-10T08:36:35.291Z,99031.69
2023-03-10T08:39:05.849Z,99020.50
2023-03-10T08:41:37.465Z,99024.84
2023-03-10T08:44:07.696Z,99024.00
2023-03-10T08:46:37.803Z,99025.75
2023-03-10T08:49:06.524Z,99025.75
2023-03-10T08:51:35.332Z,99017.97
2023-03-10T08:54:04.373Z,99018.81
2023-03-10T08:56:33.158Z,99020.56
2023-03-10T08:59:02.136Z,99030.06
2023-03-10T09:01:33.182Z,99042.13
2023-03-10T09:04:04.633Z,99043.00
2023-03-10T09:06:33.794Z,99054.22
2023-03-10T09:09:02.622Z,99052.47
2023-03-10T09:11:36.988Z,99052.47
2023-03-10T09:14:07.622Z,99061.09
2023-03-10T09:16:36.548Z,99050.75
2023-03-10T09:19:06.646Z,99052.44
2023-03-10T09:21:35.098Z,99042.97
2023-03-10T09:24:05.843Z,99047.28
2023-03-10T09:26:34.608Z,99059.34
2023-03-10T09:29:03.699Z,99061.09
2023-03-10T09:31:34.991Z,99072.31
2023-03-10T09:34:05.510Z,99065.38
2023-03-10T09:36:34.184Z,99093.84
2023-03-10T09:39:03.458Z,99095.56
2023-03-10T09:42:11.886Z,99092.97
2023-03-10T09:44:43.859Z,99101.63
2023-03-10T09:47:27.786Z,99099.03
2023-03-10T09:50:24.532Z,99099.03
2023-03-10T09:53:02.101Z,99095.59
2023-03-10T09:55:38.257Z,99084.38
2023-03-10T09:58:19.476Z,99081.78
2023-03-10T10:00:48.112Z,99088.72
2023-03-10T10:03:22.778Z,99086.13
2023-03-10T10:05:56.453Z,99100.81
2023-03-10T10:08:29.579Z,99091.31
2023-03-10T10:11:00.187Z,99103.41
2023-03-10T10:13:31.347Z,99092.19
2023-03-10T10:16:24.441Z,99097.38
2023-03-10T10:19:01.897Z,99105.16
2023-03-10T10:21:45.433Z,99108.63
2023-03-10T10:24:14.910Z,99101.72
2023-03-10T10:26:43.410Z,99101.75
2023-03-10T10:29:17.735Z,99097.44
2023-03-10T10:32:09.711Z,99112.09
2023-03-10T10:34:40.590Z,99113.84
2023-03-10T10:37:36.247Z,99106.94
2023-03-10T10:40:24.981Z,99100.91
2023-03-10T10:42:55.097Z,99100.91
2023-03-10T10:45:31.273Z,99107.81
2023-03-10T10:47:59.741Z,99102.63
2023-03-10T10:50:30.892Z,99112.09
2023-03-10T10:53:23.183Z,99121.59
2023-03-10T10:56:04.582Z,99117.28
2023-03-10T10:58:36.839Z,99114.69
2023-03-10T11:01:08.761Z,99115.53
2023-03-10T11:03:39.724Z,99121.56
2023-03-10T11:06:29.153Z,99115.53
2023-03-10T11:09:08.890Z,99119.84
2023-03-10T11:11:46.532Z,99114.66
2023-03-10T11:14:34.115Z,99114.69
2023-03-10T11:17:08.547Z,99112.09
2023-03-10T11:19:57.232Z,99119.84
2023-03-10T11:22:38.591Z,99125.03
2023-03-10T11:25:28.813Z,99119.00
2023-03-10T11:28:10.782Z,99126.78
2023-03-10T11:30:43.544Z,99124.19
2023-03-10T11:33:22.933Z,99115.56
2023-03-10T11:35:55.279Z,99116.41
2023-03-10T11:38:36.190Z,99112.94
2023-03-10T11:41:12.611Z,99109.53
2023-03-10T11:43:56.340Z,99107.78
2023-03-10T11:46:29.958Z,99109.50
2023-03-10T11:49:08.963Z,99116.41
2023-03-10T11:51:41.776Z,99112.94
2023-03-10T11:54:18.409Z,99119.84
2023-03-10T11:56:50.061Z,99122.44
2023-03-10T11:59:23.387Z,99126.75
2023-03-10T12:01:56.558Z,99131.09
2023-03-10T12:04:32.103Z,99121.56
2023-03-10T12:07:06.019Z,99125.88
2023-03-10T12:09:42.363Z,99118.97
2023-03-10T12:12:17.036Z,99126.75
2023-03-10T12:14:47.260Z,99130.19
2023-03-10T12:17:17.893Z,99120.66
2023-03-10T12:20:26.669Z,99114.66
2023-03-10T12:22:56.538Z,99115.47
2023-03-10T12:25:45.920Z,99109.44
2023-03-10T12:28:30.884Z,99109.44
2023-03-10T12:31:01.318Z,99109.41
2023-03-10T12:34:14.245Z,99115.44
2023-03-10T12:36:46.148Z,99118.00
2023-03-10T12:39:40.193Z,99117.13
2023-03-10T12:42:34.997Z,99105.88
2023-03-10T12:45:18.424Z,99112.81
2023-03-10T12:47:55.431Z,99113.63
2023-03-10T12:50:42.101Z,99116.19
2023-03-10T12:53:32.188Z,99108.41
2023-03-10T12:56:37.327Z,99107.50
2023-03-10T12:59:16.227Z,99113.53
2023-03-10T13:01:55.835Z,99109.22
2023-03-10T13:04:26.666Z,99122.13
2023-03-10T13:07:03.779Z,99126.47
2023-03-10T13:09:39.080Z,99122.13
2023-03-10T13:12:16.529Z,99121.25
2023-03-10T13:14:46.211Z,99116.94
2023-03-10T13:17:26.048Z,99116.09
2023-03-10T13:20:12.675Z,99118.66
2023-03-10T13:22:43.481Z,99099.72
2023-03-10T13:25:15.986Z,99100.56
2023-03-10T13:27:44.473Z,99123.06
2023-03-10T13:30:20.041Z,99103.28
2023-03-10T13:32:59.447Z,99114.50
2023-03-10T13:35:33.740Z,99118.00
2023-03-10T13:38:13.987Z,99102.47
2023-03-10T13:40:45.634Z,99111.16
2023-03-10T13:43:39.080Z,99110.28
2023-03-10T13:46:16.173Z,99120.63
2023-03-10T13:48:47.317Z,99127.53
2023-03-10T13:51:23.831Z,99138.72
2023-03-10T13:53:55.274Z,99138.72
2023-03-10T13:56:27.849Z,99142.16
2023-03-10T13:58:59.336Z,99140.44
2023-03-10T14:01:33.998Z,99148.16
2023-03-10T14:04:09.002Z,99143.88
2023-03-10T14:06:39.292Z,99148.22
2023-03-10T14:09:16.140Z,99152.53
2023-03-10T14:11:47.069Z,99149.06
2023-03-10T14:14:30.455Z,99159.41
2023-03-10T14:17:01.249Z,99174.03
2023-03-10T14:19:51.532Z,99161.97
2023-03-10T14:22:37.896Z,99174.91
2023-03-10T14:25:16.653Z,99183.47
2023-03-10T14:27:48.332Z,99192.09
2023-03-10T14:30:26.329Z,99198.13
2023-03-10T14:32:56.207Z,99192.97
2023-03-10T14:35:29.501Z,99200.72
2023-03-10T14:37:58.905Z,99205.88
2023-03-10T14:40:28.116Z,99217.09
2023-03-10T14:43:02.065Z,99233.53
2023-03-10T14:45:33.462Z,99247.28
2023-03-10T14:48:05.679Z,99257.59
2023-03-10T14:50:35.695Z,99266.19
2023-03-10T14:53:04.515Z,99261.00
2023-03-10T14:55:32.870Z,99252.34
2023-03-10T14:58:04.581Z,99258.41
2023-03-10T15:00:34.194Z,99260.97
2023-03-10T15:03:05.332Z,99263.50
2023-03-10T15:05:47.776Z,99255.69
2023-03-10T15:08:17.594Z,99252.19
2023-03-10T15:10:49.797Z,99234.84
2023-03-10T15:13:19.939Z,99253.81
2023-03-10T15:15:49.796Z,99265.88
2023-03-10T15:18:21.459Z,99267.53
2023-03-10T15:20:51.636Z,99269.25
2023-03-10T15:23:22.430Z,99273.56
2023-03-10T15:25:52.040Z,99279.59
2023-03-10T15:28:20.560Z,99279.56
2023-03-10T15:30:49.559Z,99282.16
2023-03-10T15:33:18.399Z,99288.19
2023-03-10T15:35:46.919Z,99294.22
2023-03-10T15:38:17.574Z,99294.28
2023-03-10T15:40:46.095Z,99293.41
2023-03-10T15:43:14.876Z,99293.44
2023-03-10T15:45:46.749Z,99303.78
2023-03-10T15:48:15.200Z,99298.63
2023-03-10T15:50:46.990Z,99309.00
2023-03-10T15:53:17.231Z,99327.97
2023-03-10T15:55:45.864Z,99321.91
2023-03-10T15:58:14.493Z,99327.91
2023-03-10T16:00:44.055Z,99334.75
2023-03-10T16:03:12.696Z,99338.97
2023-03-10T16:05:48.941Z,99340.63
2023-03-10T16:08:19.436Z,99354.41
2023-03-10T16:10:53.858Z,99364.69
2023-03-10T16:13:23.869Z,99365.50
2023-03-10T16:15:53.440Z,99367.19
2023-03-10T16:18:27.229Z,99393.03
2023-03-10T16:21:00.805Z,99377.44
2023-03-10T16:23:32.936Z,99398.16
2023-03-10T16:26:12.650Z,99411.88
2023-03-10T16:28:45.890Z,99431.72
2023-03-10T16:31:16.718Z,99421.38
2023-03-10T16:33:50.357Z,99441.19
2023-03-10T16:36:21.206Z,99454.09
2023-03-10T16:38:53.679Z,99460.16
2023-03-10T16:41:24.228Z,99471.38
2023-03-10T16:43:54.830Z,99480.88
2023-03-10T16:46:26.358Z,99498.94
2023-03-10T16:49:04.711Z,99513.44
2023-03-10T16:51:37.666Z,99528.91
2023-03-10T16:54:11.432Z,99530.50
2023-03-10T16:56:43.463Z,99534.72
2023-03-10T16:59:16.924Z,99542.47
2023-03-10T17:01:46.770Z,99561.38
2023-03-10T17:04:15.561Z,99563.03
2023-03-10T17:06:45.050Z,99573.38
2023-03-10T17:09:16.197Z,99581.09
2023-03-10T17:11:47.933Z,99587.91
2023-03-10T17:14:18.054Z,99620.56
2023-03-10T17:16:48.432Z,99611.88
2023-03-10T17:19:19.851Z,99619.59
2023-03-10T17:21:52.379Z,99621.25
2023-03-10T17:24:23.488Z,99628.06
2023-03-10T17:26:51.938Z,99639.34
2023-03-10T17:29:20.682Z,99641.84
2023-03-10T17:31:50.789Z,99635.78
2023-03-10T17:34:20.783Z,99639.91
2023-03-10T17:36:51.780Z,99643.38
2023-03-10T17:39:23.725Z,99655.41
2023-03-10T17:41:52.199Z,99645.06
2023-03-10T17:44:31.646Z,99665.72
2023-03-10T17:47:00.023Z,99667.47
2023-03-10T17:49:33.648Z,99672.63
2023-03-10T17:52:02.023Z,99664.03
2023-03-10T17:54:34.351Z,99652.91
2023-03-10T17:57:03.853Z,99653.78
2023-03-10T17:59:33.466Z,99661.53
2023-03-10T18:02:04.059Z,99673.56
2023-03-10T18:04:33.627Z,99683.88
2023-03-10T18:07:02.147Z,99691.63
2023-03-10T18:09:31.948Z,99706.25
2023-03-10T18:12:00.482Z,99717.44
2023-03-10T18:14:32.032Z,99727.75
2023-03-10T18:17:02.844Z,99745.81
2023-03-10T18:19:31.623Z,99749.22
2023-03-10T18:22:00.287Z,99751.00
2023-03-10T18:24:29.084Z,99758.72
2023-03-10T18:26:58.857Z,99763.88
2023-03-10T18:29:30.146Z,99774.13
2023-03-10T18:31:58.544Z,99791.38
2023-03-10T18:34:27.674Z,99794.78
2023-03-10T18:36:56.264Z,99806.88
2023-03-10T18:39:25.171Z,99820.59
2023-03-10T18:41:55.180Z,99818.00
2023-03-10T18:44:25.023Z,99829.19
2023-03-10T18:46:53.484Z,99830.06
2023-03-10T18:49:21.864Z,99843.00
2023-03-10T18:51:56.583Z,99855.91
2023-03-10T18:54:28.136Z,99844.69
2023-03-10T18:56:59.366Z,99851.56
2023-03-10T18:59:30.268Z,99860.22
2023-03-10T19:01:59.306Z,99863.56
2023-03-10T19:04:28.981Z,99879.97
2023-03-10T19:06:57.791Z,99881.72
2023-03-10T19:09:29.604Z,99886.03
2023-03-10T19:11:58.160Z,99889.31
2023-03-10T19:14:27.945Z,99898.94
2023-03-10T19:16:56.344Z,99905.81
2023-03-10T19:19:25.311Z,99892.78
2023-03-10T19:21:53.831Z,99919.69
2023-03-10T19:24:22.293Z,99923.13
2023-03-10T19:26:50.631Z,99926.63
2023-03-10T19:29:19.096Z,99930.94
2023-03-10T19:31:48.842Z,99915.50
2023-03-10T19:34:17.625Z,99927.56
2023-03-10T19:36:46.253Z,99920.66
2023-03-10T19:39:15.701Z,99932.72
2023-03-10T19:41:44.029Z,99943.91
2023-03-10T19:44:12.599Z,99944.72
2023-03-10T19:46:41.085Z,99937.75
2023-03-10T19:49:10.888Z,99950.66
2023-03-10T19:51:39.467Z,99961.81
2023-03-10T19:54:07.962Z,99975.63
2023-03-10T19:56:39.149Z,99983.44
2023-03-10T19:59:10.324Z,99976.56
2023-03-10T20:01:40.505Z,99991.13
2023-03-10T20:04:11.434Z,99992.78
2023-03-10T20:06:39.848Z,99989.31
2023-03-10T20:09:10.501Z,100006.44
2023-03-10T20:11:40.257Z,100015.88
2023-03-10T20:14:09.466Z,100014.09
2023-03-10T20:16:38.184Z,100015.75
2023-03-10T20:19:06.944Z,100030.38
2023-03-10T20:21:36.779Z,100042.34
2023-03-10T20:24:06.327Z,100051.88
2023-03-10T20:26:36.153Z,100055.28
2023-03-10T20:29:04.595Z,100063.13
2023-03-10T20:31:34.336Z,100070.00
2023-03-10T20:34:03.041Z,100075.16
2023-03-10T20:36:31.735Z,100089.78
2023-03-10T20:39:01.471Z,100100.13
2023-03-10T20:41:30.115Z,100089.72
2023-03-10T20:44:00.634Z,100088.69
2023-03-10T20:46:29.297Z,100094.59
2023-03-10T20:48:58.037Z,100092.69
2023-03-10T20:51:26.614Z,100095.25
2023-03-10T20:53:56.922Z,100108.97
2023-03-10T20:56:30.346Z,100108.84
2023-03-10T20:59:01.728Z,100123.31
2023-03-10T21:01:31.227Z,100124.84
2023-03-10T21:03:59.871Z,100130.94
2023-03-10T21:06:29.224Z,100139.59
2023-03-10T21:08:58.118Z,100142.25
2023-03-10T21:11:29.296Z,100149.19
2023-03-10T21:13:58.241Z,100155.22
2023-03-10T21:16:26.734Z,100160.44
2023-03-10T21:18:55.550Z,100161.38
2023-03-10T21:21:24.027Z,100166.53
2023-03-10T21:23:52.387Z,100171.63
2023-03-10T21:26:22.560Z,100177.69
2023-03-10T21:28:52.337Z,100176.91
2023-03-10T21:31:20.869Z,100183.00
2023-03-10T21:33:50.214Z,100191.59
2023-03-10T21:36:21.333Z,100202.06
2023-03-10T21:38:50.554Z,100212.44
2023-03-10T21:41:21.858Z,100209.06
2023-03-10T21:43:52.088Z,100213.44
2023-03-10T21:46:20.701Z,100227.34
2023-03-10T21:48:49.548Z,100242.03
2023-03-10T21:51:22.125Z,100237.78
2023-03-10T21:53:51.105Z,100247.31
2023-03-10T21:56:22.175Z,100247.38
2023-03-10T21:58:52.377Z,100247.38
2023-03-10T22:01:22.434Z,100241.34
2023-03-10T22:03:51.857Z,100249.03
2023-03-10T22:06:20.323Z,100251.63
2023-03-10T22:08:48.834Z,100247.38
2023-03-10T22:11:17.631Z,100249.16
2023-03-10T22:13:46.331Z,100255.13
2023-03-10T22:16:18.428Z,100258.38
2023-03-10T22:18:49.475Z,100254.75
2023-03-10T22:21:18.824Z,100258.09
2023-03-10T22:23:47.428Z,100264.00
2023-03-10T22:26:24.922Z,100267.22
2023-03-10T22:28:53.917Z,100267.09
2023-03-10T22:31:23.818Z,100272.25
2023-03-10T22:33:52.258Z,100276.63
2023-03-10T22:36:20.688Z,100281.00
2023-03-10T22:38:49.231Z,100292.25
2023-03-10T22:41:18.044Z,100294.97
2023-03-10T22:43:46.460Z,100299.28
2023-03-10T22:46:17.387Z,100309.59
2023-03-10T22:48:47.348Z,100308.78
2023-03-10T22:51:19.358Z,100324.16
2023-03-10T22:53:48.061Z,100318.91
2023-03-10T22:56:20.101Z,100317.13
2023-03-10T22:58:48.476Z,100323.88
2023-03-10T23:01:16.987Z,100327.97
2023-03-10T23:03:46.930Z,100339.91
2023-03-10T23:06:15.964Z,100351.78
2023-03-10T23:08:46.460Z,100361.06
2023-03-10T23:11:19.960Z,100362.63
2023-03-10T23:13:48.779Z,100359.78
2023-03-10T23:16:19.927Z,100365.59
2023-03-10T23:18:50.020Z,100361.22
2023-03-10T23:21:18.608Z,100361.16
2023-03-10T23:23:48.175Z,100357.72
2023-03-10T23:26:17.027Z,100362.78
2023-03-10T23:28:45.544Z,100367.00
2023-03-10T23:31:15.747Z,100372.09
2023-03-10T23:33:45.577Z,100375.59
2023-03-10T23:36:15.754Z,100374.06
2023-03-10T23:38:44.425Z,100376.94
2023-03-10T23:41:13.314Z,100385.72
2023-03-10T23:43:42.445Z,100395.31
2023-03-10T23:46:11.034Z,100398.81
2023-03-10T23:48:39.438Z,100398.16
2023-03-10T23:51:15.902Z,100402.53
2023-03-10T23:53:45.201Z,100404.19
2023-03-10T23:56:13.758Z,100416.47
2023-03-10T23:58:42.670Z,100415.66
